AirNav   Air Wisconsin pilot careers
 
 1477 users online  

F56 Arledge Field Airport
Stamford, Texas, USA


FAA INFORMATION EFFECTIVE 07 DECEMBER 2017

Location

FAA Identifier: F56
Lat/Long: 32-54-37.7000N / 099-44-03.0000W
32-54.628333N / 099-44.050000W
32.9104722 / -99.7341667
(estimated)
Elevation: 1560.8 ft. / 475.7 m (surveyed)
Variation: 06E (2010)
From city: 4 miles SE of STAMFORD, TX
Time zone: UTC -6 (UTC -5 during Daylight Saving Time)
Zip code: 79503

Airport Operations

Airport use: Open to the public
Activation date: 09/1941
Control tower: no
ARTCC: FORT WORTH CENTER
FSS: FORT WORTH FLIGHT SERVICE STATION
NOTAMs facility: FTW (NOTAM-D service available)
Attendance: UNATNDD
Wind indicator: lighted
Segmented circle: yes
Lights: ACTVT MIRL RY 17/35 - CTAF.
Beacon: white-green (lighted land airport)
Operates sunset to sunrise.

Airport Communications

CTAF/UNICOM: 122.8
ABILENE APPROACH: 127.2
ABILENE DEPARTURE: 127.2

Nearby radio navigation aids

VOR radial/distance  VOR name  Freq  Var
ABIr004/26.6ABILENE VORTAC113.7010E

Airport Services

Fuel available: 100LL
Parking: hangars and tiedowns
Airframe service: MAJOR
Powerplant service: MAJOR
Bottled oxygen: NONE
Bulk oxygen: NONE

Runway Information

Runway 17/35

Dimensions: 3707 x 60 ft. / 1130 x 18 m
Surface: asphalt, in good condition
Weight bearing capacity: 
Single wheel: 4.0
Runway edge lights: medium intensity
RUNWAY 17  RUNWAY 35
Latitude: 32-54.854227N32-54.243023N
Longitude: 099-44.157137W099-44.162220W
Elevation: 1560.6 ft.1553.8 ft.
Gradient: 0.2%0.2%
Traffic pattern: leftleft
Runway heading: 174 magnetic, 180 true354 magnetic, 000 true
Markings: nonprecision, in good conditionnonprecision, in good condition
Touchdown point: yes, no lightsyes, no lights
Obstructions: 15 ft. road, 900 ft. from runway, 46:1 slope to clear
10 FT ROAD 60 FT EAST OF RY CENTERLINE AT THLD.
none

Runway 8/26

Dimensions: 2211 x 50 ft. / 674 x 15 m
Surface: turf/gravel, in poor condition
RUNWAY 8  RUNWAY 26
Latitude: 32-54.747442N32-54.741275N
Longitude: 099-44.163825W099-43.731750W
Elevation: 1560.0 ft.1554.9 ft.
Gradient: 0.2%0.2%
Traffic pattern: leftleft
Runway heading: 085 magnetic, 091 true265 magnetic, 271 true
Touchdown point: yes, no lightsyes, no lights
Obstructions: 10 ft. road, 50 ft. left of centerlinenone

Runway 13/31

Dimensions: 1702 x 50 ft. / 519 x 15 m
Surface: turf/gravel, in poor condition
Gradient: NW.
RUNWAY 13  RUNWAY 31
Latitude: 32-54.751265N32-54.550128N
Longitude: 099-44.057410W099-43.825367W
Elevation: 1558.0 ft.1552.5 ft.
Gradient: 0.3%0.3% UP
Traffic pattern: leftleft
Runway heading: 130 magnetic, 136 true310 magnetic, 316 true
Touchdown point: yes, no lightsyes, no lights
Obstructions: 10 ft. road10 ft. road

Airport Ownership and Management from official FAA records

Ownership: Publicly-owned
Owner: CITY OF STAMFORD
PO BOX 191
STAMFORD, TX 79553
Phone 325-773-2591
Manager: ALAN PLUMLEE
PO BOX 191
STAMFORD, TX 79553
Phone 325-773-2591
CITY MANAGER

Airport Operational Statistics

Aircraft based on the field: 16
Single engine airplanes: 14
Multi engine airplanes: 2
    
Aircraft operations: avg 84/week *
75% local general aviation
25% transient general aviation
* for 12-month period ending 15 January 2015

Additional Remarks

FARM EQUIPMENT INVOF AIRPORT.

Instrument Procedures

NOTE: All procedures below are presented as PDF files. If you need a reader for these files, you should download the free Adobe Reader.

NOT FOR NAVIGATION. Please procure official charts for flight.
FAA instrument procedures published for use between 7 December 2017 at 0901Z and 4 January 2018 at 0900Z.

 
IAPs - Instrument Approach Procedures
RNAV (GPS) RWY 17   download (163KB)
RNAV (GPS) RWY 35   download (175KB)
NOTE: Special Take-Off Minimums/Departure Procedures apply   download (113KB)

Other nearby airports with instrument procedures:

15F - Haskell Municipal Airport (17 nm N)
T23 - Albany Municipal Airport (26 nm SE)
KABI - Abilene Regional Airport (30 nm S)
KDYS - Dyess Air Force Base (30 nm S)
KBKD - Stephens County Airport (44 nm E)
 
Loc | Ops | Rwys | IFR | FBO | Links
Com | Nav | Svcs | Stats | Notes


 
Area around F56 (Arledge Field Airport)
 
Road maps at: MapQuest Bing Google
 
Aerial photo
WARNING: Photo may not be current or correct
Aerial photo of F56 (Arledge Field Airport)
Photo by John McDonald
Taken in 2007

Do you have a better or more recent aerial photo of Arledge Field Airport that you would like to share? If so, please send us your photo.

 
Sectional chart

 
Airport distance calculator
Flying to Arledge Field Airport? Find the distance to fly.

From to F56

Sunrise and sunset
Times for 18-Dec-2017
 Local
(UTC-6)
 Zulu
(UTC)
Morning civil twilight07:1013:10
Sunrise07:3713:37
Sunset17:3423:34
Evening civil twilight18:0100:01

Current date and time
Zulu (UTC)  18-Dec-2017 20:16:40
Local (UTC-6)  18-Dec-2017 14:16:40
 
METAR
KABI 
30nm S 
181952Z 18015KT 10SM CLR 17/10 A3007 RMK AO2 SLP175 T01670100
KDYS 
30nm S 
181956Z 18011KT 10SM CLR 16/09 A3006 RMK AO2A SLP174 T01550087 $
KBKD 
44nm E 
181955Z AUTO 20006KT 10SM SCT024 17/10 A3009 RMK AO2 T01650095
KSWW 
46nm SW 
181955Z AUTO 15009KT 10SM CLR 18/08 A3008 RMK AO2 T01800082
KGZN 
49nm SE 
182000Z AUTO 19011G21KT 10SM FEW014 OVC019 16/12 A3010 RMK AO2
TAF
KABI 
30nm S 
181733Z 1818/1918 17006KT P6SM SCT025 BKN100 TEMPO 1818/1820 BKN025 FM182000 18007KT P6SM BKN250 FM190900 20005KT 5SM BR BKN012 FM191500 24005KT 3SM BR VCSH OVC007
KDYS 
30nm S 
181815Z 1818/1923 19009KT 9999 SCT080 QNH3003INS BECMG 1823/1824 17006KT 9999 SCT050 SCT200 QNH3004INS BECMG 1905/1906 18006KT 3200 BR SCT005 BKN040 QNH3002INS TEMPO 1910/1915 0800 FG BKN002 OVC030 BECMG 1915/1916 18006KT 6000 -RA BR BKN040 QNH2998INS BECMG 1917/1918 19006KT 8000 BR SCT050 QNH2992INS BECMG 1920/1921 20009KT 9999 NSW FEW050 SCT060 QNH2990INS TX18/1821Z TN04/1912Z
NOTAMs
Click for the latest NOTAMs
NOTAMs are issued by the DoD/FAA and will open in a separate window not controlled by AirNav.

 

 
 

FBO, Fuel Providers, and Aircraft Ground Support

  
 Business Name 
 
 Contact 
 
 Services / Description 
 
Fuel Prices
 
Comments
  
City of Stamford 325-370-7986 Airport management, Aviation fuel

More info about City of Stamford
100LL
SS $3.70 
 Updated 14-Nov-2017
 
   2 read write
SS=Self service
Update Fuel Prices
 

Would you like to see your business listed on this page?

 If your business provides an interesting product or service to pilots, flight crews, aircraft, or users of the Arledge Field Airport, you should consider listing it here.  To start the listing process, click on the button below
 
Add a business
 

Other Pages about Arledge Field Airport

www.sunsetpass.com/...
 
Update a link
 
Copyright © AirNav, LLC. All rights reserved. Privacy Policy  Contact